Time;durP1;ratioP1;P1;durP2;ratioP2;P2;SDS_P1;SDS_P2;PMS_P1;PMS_P2;Temp;Humidity;BMP_temperature;BMP_pressure;BME280_temperature;BME280_humidity;BME280_pressure;Samples;Min_cycle;Max_cycle;Signal;HPM_P1;HPM_P2
2021/11/10 00:00:32;;;;;;;18.02;6.10;;;5.60;99.90;;;3.96;100.00;102445.13;4947639;28;20084;-79
2021/11/10 00:02:58;;;;;;;18.27;6.03;;;5.60;99.90;;;3.97;100.00;102452.06;4971462;28;20522;-78
2021/11/10 00:05:24;;;;;;;16.27;6.43;;;5.60;99.90;;;3.98;100.00;102451.22;4963813;28;20489;-79
2021/11/10 00:07:51;;;;;;;13.90;6.15;;;5.60;99.90;;;4.06;100.00;102454.75;4943694;28;20025;-80
2021/11/10 00:10:20;;;;;;;19.23;6.40;;;5.60;99.90;;;3.95;100.00;102425.13;4963383;28;20091;-78
2021/11/10 00:12:50;;;;;;;18.60;6.43;;;5.60;99.90;;;3.90;100.00;102428.56;4963170;28;20103;-80
2021/11/10 00:15:16;;;;;;;23.33;6.25;;;5.50;99.90;;;3.85;100.00;102435.47;4993254;28;20047;-80
2021/11/10 00:17:42;;;;;;;14.27;6.15;;;5.40;99.90;;;3.79;100.00;102422.38;4934359;28;20029;-80
2021/11/10 00:20:35;;;;;;;15.27;5.78;;;5.40;99.90;;;3.67;100.00;102414.47;4986285;28;20037;-80
2021/11/10 00:23:01;;;;;;;15.73;5.18;;;5.30;99.90;;;3.64;100.00;102412.69;4978348;28;20450;-79
2021/11/10 00:25:27;;;;;;;13.68;5.57;;;5.30;99.90;;;3.60;100.00;102400.50;4976138;28;20026;-80
2021/11/10 00:28:01;;;;;;;20.08;5.15;;;5.30;99.90;;;3.62;100.00;102419.63;4945168;28;20025;-81
2021/11/10 00:30:27;;;;;;;13.77;5.85;;;5.30;99.90;;;3.64;100.00;102423.13;4962630;28;20032;-81
2021/11/10 00:32:54;;;;;;;13.85;6.93;;;5.30;99.90;;;3.69;100.00;102358.03;4970956;28;20025;-81
2021/11/10 00:35:28;;;;;;;12.32;5.35;;;5.40;99.90;;;3.73;100.00;102444.91;4947491;28;20031;-80
2021/11/10 00:37:57;;;;;;;15.95;6.10;;;;;;;3.73;100.00;102447.53;4954920;28;20547;-80
2021/11/10 00:41:57;;;;;;;15.18;5.40;;;;;;;3.82;100.00;102447.59;4981410;27;20428;-81
2021/11/10 00:44:23;;;;;;;16.50;5.90;;;5.50;99.90;;;3.87;100.00;102452.00;4933198;28;20126;-83
2021/11/10 00:46:51;;;;;;;20.95;6.80;;;5.50;99.90;;;3.93;100.00;102456.41;4901114;28;20042;-80
2021/11/10 00:49:19;;;;;;;15.93;6.60;;;5.60;99.90;;;3.94;100.00;102436.44;4890018;28;20030;-80
2021/11/10 00:51:45;;;;;;;17.92;7.60;;;5.50;99.90;;;3.93;100.00;102435.56;4877217;28;20042;-82
2021/11/10 00:54:12;;;;;;;22.85;8.13;;;5.60;99.90;;;3.86;100.00;102423.31;4893280;28;20580;-80
2021/11/10 00:56:38;;;;;;;19.98;7.07;;;5.50;99.90;;;3.83;100.00;102412.88;4915311;28;20396;-80
2021/11/10 00:59:04;;;;;;;22.15;7.43;;;5.50;99.90;;;3.84;100.00;102427.63;4878949;28;20027;-84
2021/11/10 01:01:35;;;;;;;17.58;6.30;;;5.50;99.90;;;3.79;100.00;102417.19;4877339;28;20030;-82
2021/11/10 01:04:02;;;;;;;18.05;6.65;;;5.40;99.90;;;3.80;100.00;102418.03;4900581;28;20038;-81
2021/11/10 01:06:28;;;;;;;21.25;6.95;;;5.40;99.90;;;3.74;100.00;102415.38;4901078;28;20378;-83
2021/11/10 01:08:55;;;;;;;23.13;6.82;;;5.30;99.90;;;3.74;100.00;102411.06;4917642;28;20041;-83
2021/11/10 01:11:30;;;;;;;20.45;7.47;;;5.40;99.90;;;3.70;100.00;102398.88;4925111;28;20038;-83
2021/11/10 01:13:56;;;;;;;22.55;7.00;;;5.30;99.90;;;3.72;100.00;102410.19;4936619;28;21133;-83
2021/11/10 01:16:23;;;;;;;20.88;6.43;;;5.40;99.90;;;3.72;100.00;102406.72;4887201;28;20023;-83
2021/11/10 01:19:00;;;;;;;14.88;7.03;;;5.40;99.90;;;3.72;100.00;102384.13;4903476;28;20027;-83
2021/11/10 01:21:26;;;;;;;26.65;7.80;;;5.20;99.90;;;3.76;100.00;102395.44;4901105;28;20046;-83
2021/11/10 01:23:52;;;;;;;19.58;8.38;;;5.40;99.90;;;3.73;100.00;102385.84;4885259;28;20065;-83
2021/11/10 01:26:26;;;;;;;22.90;7.38;;;5.40;99.90;;;3.74;100.00;102390.22;4915853;28;20447;-83
2021/11/10 01:28:52;;;;;;;17.98;7.03;;;7.00;99.90;;;3.77;100.00;102402.41;4883676;28;20054;-83
2021/11/10 01:31:18;;;;;;;15.70;7.47;;;;;;;3.75;100.00;102391.94;4890203;28;20031;-83
2021/11/10 01:33:50;;;;;;;21.10;8.15;;;5.40;99.90;;;3.77;100.00;102394.59;4924645;28;20113;-83
2021/11/10 01:36:19;;;;;;;24.67;8.30;;;;;;;3.70;100.00;102385.84;4894319;28;20069;-83
2021/11/10 01:38:45;;;;;;;22.65;7.68;;;5.20;99.90;;;3.60;100.00;102369.25;4919121;28;20110;-83
2021/11/10 01:41:12;;;;;;;23.58;7.80;;;5.20;99.90;;;3.53;100.00;102362.25;4891038;28;20123;-83
2021/11/10 01:43:50;;;;;;;26.17;8.20;;;5.10;99.90;;;3.46;100.00;102363.94;4880159;28;20049;-83
2021/11/10 01:46:16;;;;;;;21.05;7.40;;;5.10;99.90;;;3.38;100.00;102362.13;4949485;28;20493;-83
2021/11/10 01:48:52;;;;;;;18.45;7.68;;;;;;;3.53;100.00;102372.66;4893963;28;20057;-83
2021/11/10 01:51:18;;;;;;;20.88;8.35;;;5.20;99.90;;;3.53;100.00;102362.25;4921820;28;20057;-83
2021/11/10 01:53:44;;;;;;;24.80;8.23;;;5.10;99.90;;;3.43;100.00;102353.47;4912192;28;20443;-83
2021/11/10 01:56:18;;;;;;;20.67;7.95;;;;;;;3.40;100.00;102350.84;4926079;28;20046;-82
2021/11/10 01:58:45;;;;;;;27.38;8.82;;;5.00;99.90;;;3.35;100.00;102336.94;4922729;28;20049;-84
2021/11/10 02:01:11;;;;;;;21.40;8.13;;;5.10;99.90;;;3.39;100.00;102340.41;4908297;28;20502;-83
2021/11/10 02:03:46;;;;;;;24.83;8.55;;;5.10;99.90;;;3.44;100.00;102341.34;4921818;28;20042;-83
2021/11/10 02:06:12;;;;;;;25.17;8.65;;;5.10;99.90;;;3.39;100.00;102343.00;4888336;28;20069;-83
2021/11/10 02:08:38;;;;;;;17.83;8.77;;;5.00;99.90;;;3.30;100.00;102333.38;4887592;28;20498;-83
2021/11/10 02:11:10;;;;;;;15.88;8.00;;;5.00;99.90;;;3.31;100.00;102336.88;4865720;28;20027;-83
2021/11/10 02:13:40;;;;;;;22.85;8.35;;;5.00;99.90;;;3.36;100.00;102353.41;4896814;28;20152;-83
2021/11/10 02:16:07;;;;;;;20.73;8.95;;;5.00;99.90;;;3.32;100.00;102342.09;4903105;28;20060;-83
2021/11/10 02:18:43;;;;;;;21.17;8.48;;;5.00;99.90;;;3.36;100.00;102362.09;4864547;28;20037;-83
2021/11/10 02:21:12;;;;;;;23.00;8.23;;;5.10;99.90;;;3.39;100.00;102338.72;4884633;28;20058;-83
2021/11/10 02:23:46;;;;;;;28.02;9.60;;;5.10;99.90;;;3.39;100.00;102337.81;4892819;28;20410;-83
2021/11/10 02:26:25;;;;;;;21.98;9.00;;;5.00;99.90;;;3.33;100.00;102319.56;4918820;28;22151;-83
2021/11/10 02:28:52;;;;;;;25.05;9.60;;;5.00;99.90;;;3.35;100.00;102323.91;4893415;28;20095;-83
2021/11/10 02:31:18;;;;;;;30.38;9.80;;;5.00;99.90;;;3.29;100.00;102319.50;4866541;28;20034;-82
2021/11/10 02:33:55;;;;;;;19.48;9.50;;;5.00;99.90;;;3.29;100.00;102305.63;4900452;28;20038;-82
2021/11/10 02:36:21;;;;;;;20.65;9.40;;;4.90;99.90;;;3.22;100.00;102309.91;4907908;28;20046;-83
2021/11/10 02:38:47;;;;;;;25.42;10.27;;;4.80;99.90;;;3.13;100.00;102293.31;4895621;28;20093;-83
2021/11/10 02:41:23;;;;;;;27.63;9.20;;;;;;;3.03;100.00;102288.03;4906054;28;20053;-82
2021/11/10 02:43:49;;;;;;;21.92;9.63;;;4.70;99.90;;;2.98;100.00;102270.63;4989006;28;20037;-83
2021/11/10 02:46:15;;;;;;;23.05;9.07;;;4.70;99.90;;;2.91;100.00;102268.81;4920659;28;20034;-83
2021/11/10 02:48:51;;;;;;;23.77;9.75;;;;;;;2.87;100.00;102260.09;4919923;28;20044;-84
2021/11/10 02:51:17;;;;;;;22.77;9.70;;;4.50;99.90;;;2.79;100.00;102266.97;4941425;28;20173;-83
2021/11/10 02:53:43;;;;;;;22.42;8.90;;;4.50;99.90;;;2.74;100.00;102261.72;4899918;28;20028;-84
2021/11/10 02:56:18;;;;;;;18.95;8.18;;;4.40;99.90;;;2.73;100.00;102264.31;4873798;28;20137;-83
2021/11/10 02:58:44;;;;;;;19.88;8.75;;;4.60;99.90;;;2.83;100.00;102273.94;4888354;28;20073;-83
2021/11/10 03:01:10;;;;;;;22.35;9.35;;;4.60;99.90;;;2.89;100.00;102289.63;4852417;28;20026;-83
2021/11/10 03:03:45;;;;;;;25.73;9.77;;;4.60;99.90;;;2.92;100.00;102289.66;4885617;28;20090;-83
2021/11/10 03:06:12;;;;;;;22.23;9.70;;;4.60;99.90;;;2.95;100.00;102294.03;4908888;28;20067;-82
2021/11/10 03:08:42;;;;;;;20.77;10.43;;;4.60;99.90;;;3.00;100.00;102293.22;4885892;28;20033;-83
2021/11/10 03:11:13;;;;;;;28.35;11.57;;;4.70;99.90;;;2.99;100.00;102272.38;4864777;28;20028;-82
2021/11/10 03:13:39;;;;;;;21.98;10.30;;;4.60;99.90;;;2.85;100.00;102254.00;4861859;28;20043;-83
2021/11/10 03:16:06;;;;;;;30.83;11.13;;;4.50;99.90;;;2.78;100.00;102265.22;4858113;28;20114;-83
2021/11/10 03:18:32;;;;;;;26.65;11.35;;;4.50;99.90;;;2.68;100.00;102243.47;4858749;28;20035;-83
2021/11/10 03:21:20;;;;;;;26.83;11.35;;;4.40;99.90;;;2.61;100.00;102244.22;4874322;28;20043;-83
2021/11/10 03:23:46;;;;;;;22.08;9.63;;;4.30;99.90;;;2.60;100.00;102224.31;4885709;28;20050;-83
2021/11/10 03:26:12;;;;;;;24.55;10.18;;;4.30;99.90;;;2.54;100.00;102250.22;4867269;28;20050;-83
2021/11/10 03:28:38;;;;;;;25.17;9.77;;;4.20;99.90;;;2.44;100.00;102327.25;4887926;28;20034;-83
2021/11/10 03:31:15;;;;;;;;;;;;;;;;;;;;;
2021/11/10 03:33:41;;;;;;;24.33;10.40;;;4.10;99.90;;;2.31;100.00;102315.84;4891497;28;20045;-83
2021/11/10 03:36:07;;;;;;;23.35;9.63;;;4.10;99.90;;;2.25;100.00;102307.97;4896223;28;20539;-82
2021/11/10 03:38:42;;;;;;;22.45;10.23;;;4.00;99.90;;;2.23;100.00;102312.25;4917413;28;20026;-83
2021/11/10 03:41:08;;;;;;;26.77;9.93;;;;;;;2.21;100.00;102317.44;4949960;28;20126;-82
2021/11/10 03:43:35;;;;;;;24.10;9.88;;;4.00;99.90;;;2.15;100.00;102306.94;4925238;28;20072;-83
2021/11/10 03:46:10;;;;;;;23.55;9.57;;;3.90;99.90;;;2.12;100.00;102298.25;4863352;28;20022;-83
2021/11/10 03:48:36;;;;;;;24.10;10.38;;;3.90;99.90;;;2.10;100.00;102289.56;4923462;28;20126;-83
2021/11/10 03:51:03;;;;;;;20.20;9.85;;;;;;;2.11;100.00;102297.38;4878367;28;20495;-83
2021/11/10 03:53:38;;;;;;;22.48;10.13;;;3.90;99.90;;;2.10;100.00;102305.16;4910366;28;20041;-83
2021/11/10 03:56:04;;;;;;;26.23;11.50;;;;;;;2.01;100.00;102305.91;4875596;28;21203;-83
2021/11/10 03:58:32;;;;;;;30.15;10.45;;;3.80;99.90;;;1.99;100.00;102305.00;4910274;28;20039;-83
2021/11/10 04:01:07;;;;;;;25.80;10.57;;;;;;;1.92;100.00;102298.81;4912400;28;20027;-83
2021/11/10 04:03:35;;;;;;;27.93;10.13;;;;;;;1.90;100.00;102291.88;4929524;28;20051;-82
2021/11/10 04:06:10;;;;;;;30.25;10.02;;;3.70;99.90;;;1.86;100.00;102303.97;4916867;28;20273;-83
2021/11/10 04:08:36;;;;;;;24.23;11.03;;;3.60;99.90;;;1.84;100.00;102303.94;4911244;28;20034;-83
2021/11/10 04:11:02;;;;;;;24.20;10.35;;;3.70;99.90;;;1.97;100.00;102315.38;4882654;28;20108;-81
2021/11/10 04:13:37;;;;;;;25.88;10.95;;;3.80;99.90;;;2.08;100.00;102335.44;4892974;28;20541;-83
2021/11/10 04:16:03;;;;;;;23.35;11.25;;;;;;;2.10;100.00;102338.94;4870453;28;20027;-82
2021/11/10 04:18:42;;;;;;;;;;;;;;;;;;;;;
2021/11/10 04:21:09;;;;;;;26.80;11.20;;;3.80;99.90;;;2.01;100.00;102326.69;4906561;28;20555;-83
2021/11/10 04:23:35;;;;;;;24.92;11.38;;;3.80;99.90;;;1.95;100.00;102298.03;4890980;28;20592;-82
2021/11/10 04:26:11;;;;;;;27.17;12.38;;;;;;;1.93;100.00;102321.38;4902208;28;20405;-83
2021/11/10 04:28:37;;;;;;;29.92;12.75;;;3.60;99.90;;;1.89;100.00;102310.91;4916720;28;20046;-83
2021/11/10 04:31:03;;;;;;;30.20;12.43;;;3.60;99.90;;;1.85;100.00;102305.66;4866059;28;20073;-83
2021/11/10 04:33:53;;;;;;;28.52;12.45;;;;;;;1.84;100.00;102306.53;4907269;28;21601;-82
2021/11/10 04:36:21;;;;;;;24.33;11.65;;;3.60;99.90;;;1.79;100.00;102294.31;4909753;28;20088;-83
2021/11/10 04:38:48;;;;;;;35.75;12.82;;;3.50;99.90;;;1.71;100.00;102301.13;4900111;28;20116;-84
2021/11/10 04:41:23;;;;;;;60.40;23.20;;;3.50;99.90;;;1.67;100.00;102295.00;4851488;28;20046;-83
2021/11/10 04:43:49;;;;;;;50.17;17.83;;;3.40;99.90;;;1.64;100.00;102290.66;4919922;28;20092;-83
2021/11/10 04:49:07;;;;;;;30.25;12.93;;;3.40;99.90;;;1.63;100.00;102306.19;4868356;28;20163;-83
2021/11/10 04:51:34;;;;;;;35.42;13.15;;;3.40;99.90;;;1.61;100.00;102300.97;4906258;28;20160;-83
2021/11/10 04:54:14;;;;;;;26.92;12.25;;;3.30;99.90;;;1.53;100.00;102286.13;4926577;28;20041;-83
2021/11/10 04:56:51;;;;;;;25.17;11.70;;;3.30;99.90;;;1.47;100.00;102310.28;4903872;28;20027;-83
2021/11/10 04:59:17;;;;;;;31.50;12.27;;;;;;;1.50;100.00;102291.28;4895537;28;20043;-83
2021/11/10 05:01:44;;;;;;;26.17;11.85;;;;;;;1.47;100.00;102297.31;4891921;28;20038;-83
2021/11/10 05:04:37;;;;;;;28.77;12.75;;;3.30;99.90;;;1.42;100.00;102286.81;4893918;28;20042;-83
2021/11/10 05:07:10;;;;;;;29.67;12.75;;;3.20;99.90;;;1.39;100.00;102288.50;4927197;28;20039;-83
2021/11/10 05:09:39;;;;;;;30.30;12.40;;;3.20;99.90;;;1.46;100.00;102292.94;4885342;28;20035;-83
2021/11/10 05:12:07;;;;;;;29.27;12.45;;;3.30;99.90;;;1.50;100.00;102291.28;4886573;28;20030;-83
2021/11/10 05:14:43;;;;;;;29.42;12.23;;;4.40;99.90;;;1.46;100.00;102279.09;4878087;28;20038;-82
2021/11/10 05:17:09;;;;;;;29.08;13.35;;;3.20;99.90;;;1.40;100.00;102324.88;4882086;28;20083;-83
2021/11/10 05:19:35;;;;;;;30.83;12.43;;;3.20;99.90;;;1.32;100.00;102304.81;4907184;28;20047;-83
2021/11/10 05:22:10;;;;;;;28.85;12.57;;;3.10;99.90;;;1.26;100.00;102315.13;4869308;28;20461;-83
2021/11/10 05:24:36;;;;;;;28.40;12.52;;;3.00;99.90;;;1.11;100.00;102298.41;4900336;28;20041;-83
2021/11/10 05:27:02;;;;;;;30.67;13.57;;;;;;;1.12;100.00;102307.06;4866829;28;20038;-83
2021/11/10 05:29:36;;;;;;;41.83;14.32;;;4.60;99.90;;;1.21;100.00;102330.59;4857493;28;20063;-83
2021/11/10 05:32:06;;;;;;;35.50;14.70;;;3.10;99.90;;;1.46;100.00;102356.97;4920923;28;20904;-82
2021/11/10 05:34:32;;;;;;;40.92;14.40;;;3.30;99.90;;;1.66;100.00;102354.69;4876022;28;20026;-83
2021/11/10 05:37:06;;;;;;;31.60;15.00;;;;;;;1.62;100.00;102348.56;4875265;28;20106;-82
2021/11/10 05:39:32;;;;;;;43.20;15.25;;;3.40;99.90;;;1.59;100.00;102344.22;4919175;28;20026;-83
2021/11/10 05:41:58;;;;;;;37.33;16.40;;;3.30;99.90;;;1.57;100.00;102342.44;4916642;28;20045;-83
2021/11/10 05:44:27;;;;;;;39.20;16.10;;;3.30;99.90;;;1.53;100.00;102343.25;4882888;28;20061;-82
2021/11/10 05:46:55;;;;;;;40.17;16.08;;;3.40;99.90;;;1.56;100.00;102340.72;4875153;28;20034;-83
2021/11/10 05:49:23;;;;;;;43.15;16.67;;;3.30;99.90;;;1.48;100.00;102324.13;4896512;28;20479;-83
2021/11/10 05:51:49;;;;;;;58.28;22.38;;;3.20;99.90;;;1.41;100.00;102305.84;4907342;28;20196;-83
2021/11/10 05:54:15;;;;;;;66.78;26.92;;;3.20;99.90;;;1.37;100.00;102305.78;4879701;28;20035;-83
2021/11/10 05:56:53;;;;;;;112.25;38.42;;;3.10;99.90;;;1.31;100.00;102303.06;4880965;28;20133;-83
2021/11/10 05:59:20;;;;;;;56.15;19.95;;;3.10;99.90;;;1.48;100.00;102334.50;4915825;28;20031;-83
2021/11/10 06:01:54;;;;;;;40.10;16.42;;;;;;;1.58;100.00;102347.66;4926703;28;20046;-83
2021/11/10 06:04:20;;;;;;;48.45;17.83;;;;;;;1.61;100.00;102345.13;4924325;28;20122;-83
2021/11/10 06:06:47;;;;;;;41.50;17.90;;;3.30;99.90;;;1.50;100.00;102328.50;4902191;28;20454;-83
2021/11/10 06:09:22;;;;;;;46.72;16.95;;;3.30;99.90;;;1.57;100.00;102343.31;4876614;28;20066;-83
2021/11/10 06:11:48;;;;;;;40.53;16.17;;;3.40;99.90;;;1.66;100.00;102355.56;4886446;28;20053;-83
2021/11/10 06:14:15;;;;;;;45.42;17.48;;;3.50;99.90;;;1.68;100.00;102361.66;4897144;28;20030;-83
2021/11/10 06:16:50;;;;;;;46.92;17.70;;;3.40;99.90;;;1.61;100.00;102339.91;4909619;28;21040;-82
2021/11/10 06:19:16;;;;;;;53.23;20.30;;;3.40;99.90;;;1.56;100.00;102335.53;4893225;28;20499;-83
2021/11/10 06:21:42;;;;;;;63.65;19.08;;;3.30;99.90;;;1.50;100.00;102327.63;4883626;28;20125;-83
2021/11/10 06:24:08;;;;;;;57.53;20.38;;;3.30;99.90;;;1.40;100.00;102321.38;4895382;28;20037;-83
2021/11/10 06:26:40;;;;;;;51.05;20.35;;;3.20;99.90;;;1.35;100.00;102338.63;4886650;28;20410;-83
2021/11/10 06:29:06;;;;;;;48.17;20.15;;;3.10;99.90;;;1.33;100.00;102328.19;4871951;28;20040;-83
2021/11/10 06:31:33;;;;;;;48.47;18.92;;;;;;;1.44;100.00;102342.22;4873349;28;20056;-81
2021/11/10 06:34:00;;;;;;;45.38;17.88;;;;;;;1.60;100.00;102356.38;4887752;28;20058;-81
2021/11/10 06:36:33;;;;;;;52.13;19.05;;;;;;;1.63;100.00;102359.00;4944857;28;20030;-81
2021/11/10 06:38:59;;;;;;;52.30;19.85;;;3.30;99.90;;;1.54;100.00;102347.59;4950945;28;20079;-81
2021/11/10 06:41:26;;;;;;;50.60;19.08;;;3.30;99.90;;;1.53;100.00;102345.84;4870075;28;20585;-81
2021/11/10 06:43:52;;;;;;;47.70;18.55;;;3.30;99.90;;;1.53;100.00;102341.50;4897593;28;20081;-80
2021/11/10 06:46:25;;;;;;;42.08;16.30;;;;;;;1.62;100.00;102364.16;4896748;28;20530;-81
2021/11/10 06:48:51;;;;;;;46.72;17.92;;;3.40;99.90;;;1.70;100.00;102356.50;4916150;28;20118;-81
2021/11/10 06:51:18;;;;;;;50.80;17.63;;;3.40;99.90;;;1.75;100.00;102352.25;4884165;28;20593;-80
2021/11/10 06:53:44;;;;;;;51.88;17.88;;;3.40;99.90;;;1.79;100.00;102356.63;4903461;28;20150;-81
2021/11/10 06:56:16;;;;;;;51.22;19.15;;;;;;;1.77;100.00;102343.66;4921772;28;20058;-81
2021/11/10 06:58:42;;;;;;;52.00;18.80;;;3.50;99.90;;;1.76;100.00;102336.69;4909211;28;20058;-81
2021/11/10 07:01:08;;;;;;;43.95;17.85;;;3.50;99.90;;;1.83;100.00;102335.06;4889426;28;20061;-82
2021/11/10 07:03:35;;;;;;;49.05;18.02;;;3.60;99.90;;;1.85;100.00;102334.22;4884842;28;20050;-81
2021/11/10 07:06:25;;;;;;;49.80;18.35;;;;;;;1.91;100.00;102319.59;4886030;28;20430;-81
2021/11/10 07:08:51;;;;;;;58.13;19.02;;;;;;;1.92;100.00;102321.34;4908204;28;20394;-81
2021/11/10 07:11:17;;;;;;;51.95;19.33;;;3.60;99.90;;;1.93;100.00;102307.50;4888602;28;20134;-81
2021/11/10 07:13:44;;;;;;;52.00;20.20;;;;;;;1.98;100.00;102314.50;4889701;28;20094;-81
2021/11/10 07:16:19;;;;;;;46.50;18.92;;;3.80;99.90;;;2.41;100.00;102361.00;4892236;28;20220;-81
2021/11/10 07:18:45;;;;;;;54.95;20.77;;;4.20;99.90;;;2.86;100.00;102384.13;4885027;28;20031;-81
2021/11/10 07:21:22;;;;;;;56.88;21.42;;;4.30;99.90;;;3.07;100.00;102372.22;4889600;28;20465;-81
2021/11/10 07:23:48;;;;;;;51.97;19.00;;;4.50;99.90;;;3.20;100.00;102342.84;4877989;28;20971;-81
2021/11/10 07:26:14;;;;;;;56.83;20.95;;;4.50;99.90;;;2.98;100.00;102302.75;4883062;28;20042;-81
2021/11/10 07:28:51;;;;;;;50.30;19.13;;;4.40;99.90;;;2.76;100.00;102256.53;4842511;28;20055;-81
2021/11/10 07:31:17;;;;;;;46.55;19.02;;;4.30;99.90;;;2.56;100.00;102230.31;4903717;28;20475;-82
2021/11/10 07:33:43;;;;;;;43.45;18.10;;;4.20;99.90;;;2.46;100.00;102232.84;4886291;28;20047;-81
2021/11/10 07:38:58;;;;;;;;;;;4.20;99.90;;;2.57;100.00;102260.66;4925115;28;20078;-81
2021/11/10 07:41:28;;;;;;;43.28;18.05;;;4.30;99.90;;;2.60;100.00;102261.56;4906792;28;19959;-81
2021/11/10 07:44:18;;;;;;;43.08;17.33;;;4.40;99.90;;;2.67;100.00;102270.31;4876224;28;20165;-80
2021/11/10 07:47:12;;;;;;;46.53;17.13;;;4.40;99.90;;;2.75;100.00;102273.00;4878099;28;20121;-81
2021/11/10 07:49:36;;;;;;;42.00;17.83;;;4.40;99.90;;;2.80;100.00;102298.19;4886883;28;20038;-81
2021/11/10 07:52:06;;;;;;;40.42;17.50;;;;;;;2.90;100.00;102301.78;4912693;28;20027;-81
2021/11/10 07:54:32;;;;;;;45.78;18.88;;;4.60;99.90;;;2.97;100.00;102303.56;4922253;28;20034;-80
2021/11/10 07:57:09;;;;;;;46.88;19.02;;;4.70;99.90;;;3.04;100.00;102307.13;4913249;28;20065;-81
2021/11/10 07:59:35;;;;;;;40.10;17.90;;;4.70;99.90;;;3.10;100.00;102319.31;4898229;28;20046;-81
2021/11/10 08:02:10;;;;;;;47.90;18.58;;;4.80;99.90;;;3.27;100.00;102333.38;4899849;28;20430;-81
2021/11/10 08:04:36;;;;;;;43.22;18.35;;;4.90;99.90;;;3.25;100.00;102329.88;4889531;28;20095;-81
2021/11/10 08:07:02;;;;;;;46.05;19.00;;;4.90;99.90;;;3.33;100.00;102328.22;4865907;28;20449;-81
2021/11/10 08:09:28;;;;;;;40.33;17.23;;;5.00;99.90;;;3.43;100.00;102337.84;4889388;28;20031;-83
2021/11/10 08:12:03;;;;;;;42.85;17.27;;;5.10;99.90;;;3.47;100.00;102343.97;4873329;28;20501;-82
2021/11/10 08:14:29;;;;;;;44.70;18.70;;;5.10;99.90;;;3.57;100.00;102350.13;4896710;28;20050;-81
2021/11/10 08:16:55;;;;;;;49.80;20.25;;;5.20;99.90;;;3.59;100.00;102346.69;4881975;28;20624;-81
2021/11/10 08:19:33;;;;;;;50.00;19.17;;;;;;;3.64;100.00;102351.94;4881260;28;20031;-81
2021/11/10 08:21:59;;;;;;;47.55;18.90;;;5.30;99.90;;;3.74;100.00;102360.66;4897116;28;20065;-81
2021/11/10 08:24:36;;;;;;;53.90;21.30;;;5.30;99.90;;;3.80;100.00;102355.50;4900659;28;20035;-81
2021/11/10 08:27:02;;;;;;;48.67;18.92;;;5.40;99.90;;;3.85;100.00;102348.63;4915487;28;20030;-81
2021/11/10 08:29:37;;;;;;;48.42;19.63;;;5.50;99.90;;;3.92;100.00;102350.41;4870886;28;20039;-83
2021/11/10 08:32:04;;;;;;;62.45;21.75;;;5.50;99.90;;;4.01;100.00;102346.97;4920614;28;20121;-80
2021/11/10 08:34:30;;;;;;;53.28;20.60;;;5.60;99.90;;;4.07;100.00;102350.50;4851917;28;20041;-79
2021/11/10 08:36:56;;;;;;;52.05;20.65;;;5.70;99.90;;;4.16;100.00;102344.47;4897335;28;20039;-82
2021/11/10 08:39:30;;;;;;;47.75;19.80;;;;;;;4.21;100.00;102350.59;4898693;28;20655;-82
2021/11/10 08:41:56;;;;;;;54.15;19.95;;;;;;;4.27;100.00;102348.00;4919828;28;20045;-84
2021/11/10 08:44:22;;;;;;;46.75;20.50;;;5.90;99.90;;;4.40;100.00;102348.94;4885721;28;20056;-83
2021/11/10 08:46:48;;;;;;;47.67;20.42;;;;;;;4.45;100.00;102341.13;4902715;28;20128;-83
2021/11/10 08:49:23;;;;;;;54.85;21.92;;;;;;;4.52;100.00;102337.69;4888195;28;20450;-83
2021/11/10 08:51:52;;;;;;;48.40;20.85;;;6.20;99.90;;;4.60;100.00;102361.19;4893586;28;20043;-82
2021/11/10 08:54:26;;;;;;;42.45;20.05;;;;;;;4.66;100.00;102351.66;4883200;28;20626;-82
2021/11/10 08:57:01;;;;;;;45.80;19.02;;;6.30;99.90;;;4.74;100.00;102349.09;4900387;28;20096;-80
2021/11/10 08:59:27;;;;;;;43.13;19.42;;;5.10;99.90;;;4.76;100.00;102341.28;4891146;28;20026;-80
2021/11/10 09:02:09;;;;;;;40.13;18.35;;;6.40;99.90;;;4.93;100.00;102353.50;4892085;28;20142;-79
2021/11/10 09:04:54;;;;;;;44.45;17.52;;;6.50;99.90;;;5.08;100.00;102282.16;4877511;28;20035;-84
2021/11/10 09:07:52;;;;;;;38.63;17.52;;;6.60;99.90;;;5.12;100.00;102294.38;4894279;28;20091;-83
2021/11/10 09:11:00;;;;;;;32.78;16.30;;;6.70;99.90;;;5.14;100.00;102334.41;4885747;28;20040;-83
2021/11/10 09:13:56;;;;;;;42.28;17.17;;;;;;;5.22;100.00;102339.63;4868024;28;20093;-83
2021/11/10 09:16:40;;;;;;;39.05;15.38;;;6.90;99.90;;;5.28;100.00;102346.63;4886107;28;20042;-83
2021/11/10 09:23:40;;;;;;;31.27;15.55;;;7.00;99.90;;;5.61;100.00;102360.56;4918967;28;20042;-83
2021/11/10 09:27:15;;;;;;;30.98;14.38;;;7.10;99.90;;;5.66;100.00;102349.25;4935951;28;20104;-83
2021/11/10 09:29:48;;;;;;;29.30;15.00;;;7.30;99.90;;;5.82;100.00;102381.47;4892350;28;20034;-83
2021/11/10 09:33:18;;;;;;;32.47;14.20;;;7.40;99.90;;;5.86;100.00;102380.59;4881073;28;20106;-83
2021/11/10 09:36:17;;;;;;;28.50;13.07;;;7.50;99.90;;;5.97;100.00;102379.75;4882631;28;20038;-84
2021/11/10 09:39:52;;;;;;;32.08;14.30;;;7.60;99.90;;;6.06;100.00;102382.34;4905464;28;20502;-84
2021/11/10 09:47:13;;;;;;;29.92;13.45;;;7.70;99.90;;;6.21;100.00;102395.41;4761576;29;20087;-84
2021/11/10 09:50:21;;;;;;;29.58;12.48;;;7.90;99.90;;;6.54;100.00;102435.44;4764806;29;20094;-84
2021/11/10 09:57:54;;;;;;;25.42;11.98;;;8.50;99.90;;;6.84;100.00;102410.91;4794444;29;20074;-84
2021/11/10 10:01:01;;;;;;;26.08;11.38;;;8.40;99.90;;;6.87;100.00;102396.94;4842505;29;20048;-85
2021/11/10 10:07:38;;;;;;;24.00;11.02;;;8.30;99.90;;;6.84;100.00;102415.28;4905570;28;20046;-83
2021/11/10 10:11:20;;;;;;;24.15;11.00;;;8.30;99.90;;;6.79;100.00;102404.84;4886683;28;20410;-84
2021/11/10 10:14:49;;;;;;;24.92;11.55;;;8.30;99.90;;;6.80;100.00;102400.47;4914621;28;21682;-84
2021/11/10 10:18:52;;;;;;;;;;;;;;;;;;;;;
2021/11/10 10:21:44;;;;;;;;;;;;;;;;;;;;;
2021/11/10 10:24:46;;;;;;;21.15;11.02;;;;;;;6.92;100.00;102384.72;4905953;28;20868;-84
2021/11/10 10:27:50;;;;;;;23.63;11.68;;;8.30;99.90;;;6.86;100.00;102379.50;4898312;28;20610;-84
2021/11/10 10:31:22;;;;;;;26.40;11.05;;;8.30;99.90;;;6.88;100.00;102388.22;4897574;28;20045;-84
2021/11/10 10:34:22;;;;;;;23.50;10.70;;;;;;;6.88;100.00;102382.97;4893191;28;20046;-84
2021/11/10 10:36:59;;;;;;;19.00;10.10;;;8.40;99.90;;;6.92;100.00;102377.72;4907358;28;20041;-84
2021/11/10 10:39:36;;;;;;;21.63;10.95;;;8.40;99.90;;;6.94;100.00;102372.47;4894230;28;20033;-82
2021/11/10 10:42:13;;;;;;;21.63;11.52;;;;;;;6.97;100.00;102368.06;4920338;28;20060;-85
2021/11/10 10:44:43;;;;;;;24.60;9.98;;;8.50;99.90;;;7.01;100.00;102352.38;4912959;28;20395;-85
2021/11/10 10:47:20;;;;;;;21.25;10.55;;;8.50;99.90;;;7.04;100.00;102473.72;4908513;28;20026;-85
2021/11/10 10:49:46;;;;;;;27.02;10.48;;;8.60;99.90;;;7.12;100.00;102274.56;4878770;28;20050;-84
2021/11/10 10:52:39;;;;;;;21.13;10.77;;;;;;;7.19;100.00;102320.78;4914030;28;20046;-84
2021/11/10 10:55:05;;;;;;;26.35;10.15;;;8.70;99.90;;;7.25;100.00;102399.34;4925723;28;20405;-86
2021/11/10 10:57:45;;;;;;;22.73;11.02;;;8.70;99.90;;;7.25;100.00;102398.50;4950933;28;20395;-84
2021/11/10 11:00:14;;;;;;;20.40;9.98;;;8.70;99.90;;;7.29;100.00;102388.00;4916541;28;20035;-84
2021/11/10 11:02:49;;;;;;;21.95;10.63;;;;;;;7.33;100.00;102392.31;4889594;28;20034;-84
2021/11/10 11:05:43;;;;;;;20.85;10.25;;;8.70;99.90;;;7.29;100.00;102359.16;4869128;28;20051;-85
2021/11/10 11:08:38;;;;;;;21.95;10.50;;;8.80;99.90;;;7.34;100.00;102365.25;4900788;28;20154;-85
2021/11/10 11:11:38;;;;;;;19.73;9.55;;;8.80;99.90;;;7.38;100.00;102350.38;4889945;28;20109;-85
2021/11/10 11:14:27;;;;;;;21.55;10.75;;;8.90;99.90;;;7.50;100.00;102358.16;4900001;28;20066;-84
2021/11/10 11:17:09;;;;;;;23.38;10.40;;;;;;;7.60;100.00;102362.44;4905589;28;20051;-85